Estación Meteorológica Peña el Pijo (Robertgarden) [ 07/23/17 10:54:57 CEST ]

Fecha Hora Presion(HPa) Temp (°C) Humedad % Rocio (°C) Viento ( m/s) Direccion Lluvia 1Hora(mm) Lluvia 24H(mm) LLuvia Total(mm)
2017-Jul-17 01:01:51 1015.100 18.8 55 9.5         1437.96
2017-Jul-17 02:01:44 1014.600 17.0 61 9.4         1437.96
2017-Jul-17 03:01:29 1014.100 15.9 64 9.1         1437.96
2017-Jul-17 04:01:27 1013.800 14.9 66 8.6         1437.96
2017-Jul-17 05:01:22 1013.300 14.3 69 8.7         1437.96
2017-Jul-17 06:01:24 1013.300 13.6 72 8.6         1437.96
2017-Jul-17 07:02:05 1013.200 13.0 73 8.3         1437.96
2017-Jul-17 08:01:37 1013.300 14.4 75 10.0         1437.96
2017-Jul-17 09:01:48 1013.500 19.7 64 12.7         1437.96
2017-Jul-17 10:01:46 1013.300 26.2 45 13.3         1437.96
2017-Jul-17 11:01:48 1013.200 30.9 32 12.2         1437.96
2017-Jul-17 12:01:45 1013.300 33.0 27 11.4         1437.96
2017-Jul-17 13:01:39 1012.700 33.9 25 10.9 2.8 SSE     1437.96
2017-Jul-17 14:01:38 1012.800 33.5 24 9.9 0.8 S     1437.96
2017-Jul-17 15:01:36 1012.500 34.4 24 10.7 1.8 SSE     1437.96
2017-Jul-17 16:02:00 1012.200 36.2 24 12.2         1437.96
2017-Jul-17 17:01:29 1012.000 33.4 26 11.1 1.1 SSE     1437.96
2017-Jul-17 18:01:48 1011.900 31.6 29 11.3         1437.96
2017-Jul-17 19:01:34 1012.000 28.9 35 11.8         1437.96
2017-Jul-17 20:01:37 1011.900 28.4 39 13.1         1437.96
2017-Jul-17 21:01:25 1012.000 27.1 42 13.1         1437.96
2017-Jul-17 22:01:31 1013.000 25.0 46 12.5         1437.96
2017-Jul-17 23:01:30 1013.900 22.9 50 11.9         1437.96

Temperatura Máxima:36°    Temperatura Mínima:13°
Presión Máxima:1015.100 Hpa    Presión Mínima:1011.900 Hpa


Volver